Time;durP1;ratioP1;P1;durP2;ratioP2;P2;SDS_P1;SDS_P2;PMS_P1;PMS_P2;Temp;Humidity;BMP_temperature;BMP_pressure;BME280_temperature;BME280_humidity;BME280_pressure;Samples;Min_cycle;Max_cycle;Signal;HPM_P1;HPM_P2
2023/08/26 00:00:33;;;;;;;6.97;6.27;;;21.20;99.90;;;;;;5024882;28;20233;-62
2023/08/26 00:03:00;;;;;;;7.00;6.00;;;21.20;99.90;;;;;;5024658;28;20205;-63
2023/08/26 00:05:25;;;;;;;7.80;6.60;;;21.20;99.90;;;;;;5026992;28;20194;-63
2023/08/26 00:07:51;;;;;;;6.50;5.90;;;21.20;99.90;;;;;;5024931;28;20206;-62
2023/08/26 00:10:16;;;;;;;6.53;6.03;;;21.20;99.90;;;;;;5021905;28;20240;-62
2023/08/26 00:12:43;;;;;;;6.50;5.90;;;21.10;99.90;;;;;;5024293;28;20194;-62
2023/08/26 00:15:09;;;;;;;6.80;6.30;;;21.10;99.90;;;;;;5021495;28;20223;-62
2023/08/26 00:17:34;;;;;;;6.73;5.33;;;21.00;99.90;;;;;;5025508;28;20205;-63
2023/08/26 00:20:00;;;;;;;8.53;6.37;;;21.00;99.90;;;;;;5021619;28;20196;-62
2023/08/26 00:22:26;;;;;;;6.65;6.05;;;20.90;99.90;;;;;;5022677;28;20552;-62
2023/08/26 00:24:51;;;;;;;6.97;6.07;;;20.90;99.90;;;;;;5027206;28;20273;-62
2023/08/26 00:27:17;;;;;;;6.47;5.73;;;20.90;99.90;;;;;;5024337;28;20210;-62
2023/08/26 00:29:43;;;;;;;6.33;5.73;;;20.90;99.90;;;;;;5023945;28;20284;-63
2023/08/26 00:32:08;;;;;;;8.47;6.20;;;20.80;99.90;;;;;;5023996;28;20212;-62
2023/08/26 00:34:34;;;;;;;7.07;6.37;;;20.80;99.90;;;;;;5022567;28;20189;-63
2023/08/26 00:37:00;;;;;;;8.43;5.90;;;20.70;99.90;;;;;;5020621;28;20237;-63
2023/08/26 00:39:26;;;;;;;7.40;6.73;;;20.70;99.90;;;;;;5020321;28;20232;-63
2023/08/26 00:41:51;;;;;;;6.60;6.10;;;20.60;99.90;;;;;;5024696;28;20526;-63
2023/08/26 00:44:17;;;;;;;7.33;6.73;;;20.60;99.90;;;;;;5023690;28;20190;-63
2023/08/26 00:46:42;;;;;;;7.17;6.43;;;20.60;99.90;;;;;;5024920;28;20222;-63
2023/08/26 00:49:08;;;;;;;7.07;6.27;;;20.70;99.90;;;;;;5028027;28;20259;-63
2023/08/26 00:51:35;;;;;;;6.30;5.70;;;20.70;99.90;;;;;;5029950;28;20286;-63
2023/08/26 00:54:01;;;;;;;6.72;6.00;;;20.60;99.90;;;;;;5028126;28;20462;-63
2023/08/26 00:56:27;;;;;;;7.00;6.20;;;20.70;99.90;;;;;;5024867;28;20247;-62
2023/08/26 00:58:52;;;;;;;7.23;6.60;;;20.70;99.90;;;;;;5025629;28;20181;-63
2023/08/26 01:01:19;;;;;;;6.43;5.83;;;20.70;99.90;;;;;;5048738;23;20233;-70
2023/08/26 01:03:45;;;;;;;6.60;6.10;;;20.70;99.90;;;;;;5049806;28;20189;-70
2023/08/26 01:06:11;;;;;;;5.47;4.97;;;20.70;99.90;;;;;;5049826;28;20202;-70
2023/08/26 01:08:37;;;;;;;6.30;5.68;;;20.70;99.90;;;;;;5046809;28;20169;-70
2023/08/26 01:11:16;;;;;;;5.60;5.03;;;20.80;99.90;;;;;;5051326;28;20739;-70
2023/08/26 01:14:00;;;;;;;5.20;4.45;;;20.80;99.90;;;;;;5047399;28;20708;-70
2023/08/26 01:16:27;;;;;;;4.47;4.07;;;20.70;99.90;;;;;;5049429;28;20632;-70
2023/08/26 01:18:53;;;;;;;4.45;4.15;;;20.70;99.90;;;;;;5045835;28;20662;-70
2023/08/26 01:21:21;;;;;;;5.53;4.40;;;20.70;99.90;;;;;;5046004;28;20621;-70
2023/08/26 01:23:47;;;;;;;6.00;4.70;;;20.60;99.90;;;;;;5047414;28;20568;-70
2023/08/26 01:26:15;;;;;;;4.72;4.22;;;20.70;99.90;;;;;;5048126;28;20206;-69
2023/08/26 01:28:40;;;;;;;5.22;4.65;;;20.60;99.90;;;;;;5049090;28;20243;-70
2023/08/26 01:31:11;;;;;;;6.13;3.80;;;20.60;99.90;;;;;;5048334;28;20205;-71
2023/08/26 01:33:46;;;;;;;4.53;4.13;;;20.60;99.90;;;;;;5046221;28;20680;-69
2023/08/26 01:36:19;;;;;;;5.10;4.70;;;21.00;99.90;;;;;;5041110;28;20209;-70
2023/08/26 01:38:45;;;;;;;7.00;5.40;;;20.30;99.90;;;;;;5048504;28;20586;-69
2023/08/26 01:41:16;;;;;;;5.45;4.15;;;20.20;99.90;;;;;;5045578;28;20205;-69
2023/08/26 01:43:43;;;;;;;5.40;4.90;;;20.30;99.90;;;;;;5046369;28;20546;-69
2023/08/26 01:46:08;;;;;;;5.30;4.60;;;20.30;99.90;;;;;;5049073;28;20205;-69
2023/08/26 01:48:34;;;;;;;5.27;4.87;;;20.30;99.90;;;;;;5063189;28;20674;-69
2023/08/26 01:51:00;;;;;;;4.90;4.50;;;20.50;99.90;;;;;;5045077;28;20217;-70
2023/08/26 01:53:25;;;;;;;4.30;4.00;;;20.70;99.90;;;;;;5048969;28;20641;-70
2023/08/26 01:55:51;;;;;;;4.10;3.70;;;20.20;99.90;;;;;;5043592;28;20550;-71
2023/08/26 01:58:17;;;;;;;5.57;4.13;;;20.20;99.90;;;;;;5046267;28;20553;-70
2023/08/26 02:00:42;;;;;;;4.97;4.43;;;20.20;99.90;;;;;;5045599;28;20189;-71
2023/08/26 02:03:08;;;;;;;7.10;5.07;;;20.20;99.90;;;;;;5047061;28;20186;-71
2023/08/26 02:05:33;;;;;;;5.57;3.97;;;20.20;99.90;;;;;;5045971;28;20284;-70
2023/08/26 02:07:59;;;;;;;4.37;3.97;;;20.10;99.90;;;;;;5044448;28;20228;-70
2023/08/26 02:10:24;;;;;;;4.13;3.50;;;20.10;99.90;;;;;;5044558;28;20181;-70
2023/08/26 02:12:50;;;;;;;4.43;4.03;;;20.40;99.90;;;;;;5044027;28;20192;-70
2023/08/26 02:15:16;;;;;;;4.67;4.23;;;20.10;99.90;;;;;;5045989;28;20185;-70
2023/08/26 02:17:41;;;;;;;4.40;4.00;;;20.10;99.90;;;;;;5047124;28;20251;-70
2023/08/26 02:20:07;;;;;;;4.47;4.07;;;20.10;99.90;;;;;;5046359;28;20178;-71
2023/08/26 02:22:33;;;;;;;6.03;4.40;;;20.10;99.90;;;;;;5045188;28;20577;-70
2023/08/26 02:24:59;;;;;;;4.60;3.60;;;20.10;99.90;;;;;;5048309;28;20182;-70
2023/08/26 02:27:24;;;;;;;5.07;4.17;;;20.10;99.90;;;;;;5041040;28;20625;-70
2023/08/26 02:29:50;;;;;;;4.13;3.80;;;20.10;99.90;;;;;;5044260;28;20190;-71
2023/08/26 02:32:15;;;;;;;4.23;3.93;;;20.10;99.90;;;;;;5047255;28;20273;-70
2023/08/26 02:34:41;;;;;;;3.90;3.60;;;20.10;99.90;;;;;;5043161;28;20563;-70
2023/08/26 02:37:06;;;;;;;4.00;3.60;;;20.00;99.90;;;;;;5047262;28;20224;-70
2023/08/26 02:39:32;;;;;;;5.77;4.23;;;20.00;99.90;;;;;;5047177;28;20200;-71
2023/08/26 02:41:57;;;;;;;4.83;4.40;;;20.10;99.90;;;;;;5044617;28;20284;-70
2023/08/26 02:44:23;;;;;;;4.50;4.10;;;20.10;99.90;;;;;;5046213;28;20207;-70
2023/08/26 02:46:49;;;;;;;3.53;3.33;;;20.00;99.90;;;;;;5041064;28;20206;-70
2023/08/26 02:49:14;;;;;;;6.10;4.17;;;20.00;99.90;;;;;;5047554;28;20250;-70
2023/08/26 02:51:40;;;;;;;5.20;4.33;;;20.00;99.90;;;;;;5046267;28;20202;-71
2023/08/26 02:54:05;;;;;;;4.50;4.10;;;20.10;99.90;;;;;;5046218;28;20638;-71
2023/08/26 02:56:31;;;;;;;5.00;4.60;;;20.10;99.90;;;;;;5041291;28;20479;-70
2023/08/26 02:58:57;;;;;;;4.97;4.57;;;20.40;99.90;;;;;;5043634;28;20386;-70
2023/08/26 03:01:24;;;;;;;5.07;4.60;;;20.10;99.90;;;;;;5045141;28;20277;-70
2023/08/26 03:03:49;;;;;;;4.15;3.85;;;20.10;99.90;;;;;;5047268;28;20182;-70
2023/08/26 03:06:15;;;;;;;4.57;4.20;;;20.10;99.90;;;;;;5043554;28;20716;-70
2023/08/26 03:08:41;;;;;;;4.47;4.10;;;20.00;99.90;;;;;;5045056;28;20189;-70
2023/08/26 03:11:09;;;;;;;6.20;5.27;;;20.00;99.90;;;;;;5043783;28;20236;-70
2023/08/26 03:13:35;;;;;;;4.53;4.10;;;20.00;99.90;;;;;;5042571;28;20227;-70
2023/08/26 03:16:10;;;;;;;6.27;5.60;;;20.00;99.90;;;;;;5046723;28;20193;-70
2023/08/26 03:18:36;;;;;;;5.00;4.50;;;20.00;99.90;;;;;;5041796;28;20267;-69
2023/08/26 03:21:03;;;;;;;4.88;3.88;;;20.00;99.90;;;;;;5043668;28;20221;-69
2023/08/26 03:23:29;;;;;;;4.97;4.40;;;20.00;99.90;;;;;;5044811;28;20220;-69
2023/08/26 03:25:55;;;;;;;6.70;4.50;;;20.00;99.90;;;;;;5044274;28;20201;-69
2023/08/26 03:28:21;;;;;;;4.22;3.90;;;20.00;99.90;;;;;;5044787;28;20193;-70
2023/08/26 03:30:46;;;;;;;3.90;3.60;;;20.00;99.90;;;;;;5046367;28;20215;-72
2023/08/26 03:33:12;;;;;;;4.63;4.33;;;20.00;99.90;;;;;;5043646;28;20726;-71
2023/08/26 03:35:39;;;;;;;4.60;4.20;;;20.10;99.90;;;;;;5042047;28;20589;-69
2023/08/26 03:38:04;;;;;;;5.57;4.32;;;20.10;99.90;;;;;;5042351;28;20212;-69
2023/08/26 03:40:30;;;;;;;5.03;4.07;;;20.10;99.90;;;;;;5044086;28;20187;-71
2023/08/26 03:42:56;;;;;;;5.13;4.60;;;20.00;99.90;;;;;;5044321;28;20186;-69
2023/08/26 03:45:21;;;;;;;7.30;4.50;;;20.00;99.90;;;;;;5043027;28;20527;-70
2023/08/26 03:47:47;;;;;;;4.53;4.10;;;19.90;99.90;;;;;;5045233;28;20209;-69
2023/08/26 03:50:13;;;;;;;6.60;4.90;;;20.00;99.90;;;;;;5041791;28;20188;-69
2023/08/26 03:52:38;;;;;;;4.30;3.90;;;19.80;99.90;;;;;;5042196;28;20177;-70
2023/08/26 03:55:04;;;;;;;5.13;4.63;;;19.90;99.90;;;;;;5043774;28;20198;-69
2023/08/26 03:57:30;;;;;;;4.83;4.33;;;19.90;99.90;;;;;;5044854;28;20700;-70
2023/08/26 03:59:56;;;;;;;5.25;4.75;;;19.90;99.90;;;;;;5043952;28;20436;-70
2023/08/26 04:02:22;;;;;;;5.80;5.10;;;19.80;99.90;;;;;;5005349;28;1110087;-69
2023/08/26 04:04:47;;;;;;;5.80;5.30;;;19.80;99.90;;;;;;5043278;28;20621;-70
2023/08/26 04:07:13;;;;;;;5.13;4.73;;;19.80;99.90;;;;;;5045894;28;20213;-70
2023/08/26 04:09:39;;;;;;;5.60;4.20;;;19.80;99.90;;;;;;5041947;28;20216;-70
2023/08/26 04:12:05;;;;;;;4.97;4.57;;;19.80;99.90;;;;;;5045084;28;20221;-69
2023/08/26 04:14:30;;;;;;;6.30;5.13;;;19.80;99.90;;;;;;5046606;28;20542;-70
2023/08/26 04:16:56;;;;;;;5.37;4.80;;;19.80;99.90;;;;;;5040761;28;20647;-70
2023/08/26 04:19:21;;;;;;;5.20;3.93;;;19.80;99.90;;;;;;5043202;28;20239;-70
2023/08/26 04:21:47;;;;;;;5.20;4.70;;;19.80;99.90;;;;;;5043212;28;20277;-70
2023/08/26 04:24:12;;;;;;;4.90;4.47;;;19.80;99.90;;;;;;5046642;28;20185;-70
2023/08/26 04:26:38;;;;;;;5.00;4.57;;;19.90;99.90;;;;;;5043690;28;20456;-70
2023/08/26 04:29:04;;;;;;;8.50;5.93;;;19.80;99.90;;;;;;5046470;28;20228;-70
2023/08/26 04:31:29;;;;;;;6.00;5.13;;;20.40;99.90;;;;;;5044301;28;20670;-69
2023/08/26 04:33:55;;;;;;;5.73;4.70;;;19.90;99.90;;;;;;5042327;28;20190;-69
2023/08/26 04:36:21;;;;;;;11.00;5.30;;;19.90;99.90;;;;;;5044782;28;20584;-69
2023/08/26 04:38:46;;;;;;;6.33;5.70;;;19.90;99.90;;;;;;5042434;28;20615;-70
2023/08/26 04:41:12;;;;;;;5.83;5.00;;;19.80;99.90;;;;;;5039755;28;20587;-69
2023/08/26 04:43:40;;;;;;;5.70;4.33;;;19.90;99.90;;;;;;5042733;28;20188;-69
2023/08/26 04:46:06;;;;;;;6.22;5.55;;;20.00;99.90;;;;;;5044469;28;20437;-69
2023/08/26 04:48:31;;;;;;;5.87;5.30;;;20.00;99.90;;;;;;5044684;28;20561;-69
2023/08/26 04:50:57;;;;;;;6.07;5.57;;;20.00;99.90;;;;;;5044036;28;20237;-69
2023/08/26 04:53:23;;;;;;;6.27;5.40;;;19.90;99.90;;;;;;5042958;28;20212;-69
2023/08/26 04:55:52;;;;;;;5.70;5.20;;;19.80;99.90;;;;;;5041205;28;20184;-69
2023/08/26 04:58:18;;;;;;;7.15;5.57;;;19.90;99.90;;;;;;5044199;28;20471;-69
2023/08/26 05:00:45;;;;;;;6.73;6.13;;;19.90;99.90;;;;;;5038757;28;20800;-69
2023/08/26 05:03:10;;;;;;;5.72;5.20;;;20.30;99.90;;;;;;5043561;28;20220;-69
2023/08/26 05:05:40;;;;;;;5.77;5.20;;;19.80;99.90;;;;;;5043574;28;20212;-69
2023/08/26 05:08:06;;;;;;;6.03;5.40;;;20.20;99.90;;;;;;5042839;28;20209;-69
2023/08/26 05:10:31;;;;;;;5.30;4.80;;;19.70;99.90;;;;;;5043235;28;20189;-69
2023/08/26 05:12:57;;;;;;;7.63;5.53;;;19.80;99.90;;;;;;5044099;28;20443;-69
2023/08/26 05:15:23;;;;;;;5.57;5.10;;;19.90;99.90;;;;;;5043225;28;20205;-69
2023/08/26 05:17:48;;;;;;;6.20;5.57;;;19.90;99.90;;;;;;5039581;28;20229;-69
2023/08/26 05:20:14;;;;;;;5.23;4.73;;;19.90;99.90;;;;;;5043428;28;20380;-69
2023/08/26 05:22:43;;;;;;;5.63;5.10;;;19.90;99.90;;;;;;5043460;28;20670;-69
2023/08/26 05:25:09;;;;;;;6.07;5.47;;;20.00;99.90;;;;;;5040673;28;20244;-69
2023/08/26 05:27:34;;;;;;;8.00;6.03;;;19.60;99.90;;;;;;5042596;28;20206;-69
2023/08/26 05:30:00;;;;;;;5.97;5.30;;;20.30;99.90;;;;;;5044650;28;20444;-69
2023/08/26 05:32:26;;;;;;;6.57;5.97;;;20.00;99.90;;;;;;5047651;28;20702;-69
2023/08/26 05:34:51;;;;;;;6.40;5.50;;;20.00;99.90;;;;;;5043963;28;20268;-69
2023/08/26 05:37:17;;;;;;;5.97;5.47;;;19.90;99.90;;;;;;5048118;28;20244;-70
2023/08/26 05:39:43;;;;;;;6.53;6.03;;;19.90;99.90;;;;;;5045184;28;20196;-69
2023/08/26 05:42:09;;;;;;;5.93;5.33;;;20.00;99.90;;;;;;5047260;28;20956;-69
2023/08/26 05:44:34;;;;;;;7.20;5.80;;;20.10;99.90;;;;;;5044116;28;20209;-70
2023/08/26 05:47:00;;;;;;;6.63;5.77;;;20.10;99.90;;;;;;5043653;28;20220;-70
2023/08/26 05:49:26;;;;;;;5.70;5.17;;;20.40;99.90;;;;;;5046040;28;20185;-70
2023/08/26 05:51:51;;;;;;;5.70;5.20;;;20.10;99.90;;;;;;5041167;28;20202;-70
2023/08/26 05:54:17;;;;;;;6.30;5.80;;;20.00;99.90;;;;;;5045185;28;20192;-72
2023/08/26 05:56:42;;;;;;;8.00;6.30;;;19.90;99.90;;;;;;5040731;28;20233;-66
2023/08/26 05:59:08;;;;;;;8.47;5.50;;;19.90;99.90;;;;;;5048553;28;20185;-66
2023/08/26 06:01:34;;;;;;;9.00;5.50;;;20.00;99.90;;;;;;5049533;28;20690;-75
2023/08/26 06:04:00;;;;;;;6.90;5.40;;;19.90;99.90;;;;;;5045513;28;20194;-72
2023/08/26 06:06:26;;;;;;;8.65;7.75;;;20.00;99.90;;;;;;5047035;28;20282;-72
2023/08/26 06:08:51;;;;;;;5.93;5.33;;;20.20;99.90;;;;;;5047750;28;20197;-72
2023/08/26 06:11:17;;;;;;;5.70;5.20;;;20.20;99.90;;;;;;5044917;28;20213;-72
2023/08/26 06:13:43;;;;;;;6.20;5.60;;;20.10;99.90;;;;;;5045233;28;20293;-72
2023/08/26 06:16:08;;;;;;;7.33;5.53;;;20.10;99.90;;;;;;5045375;28;20197;-72
2023/08/26 06:18:34;;;;;;;5.77;5.27;;;20.30;99.90;;;;;;5047611;28;21312;-72
2023/08/26 06:20:59;;;;;;;7.93;5.17;;;20.50;99.90;;;;;;5043089;28;20308;-71
2023/08/26 06:23:25;;;;;;;6.63;5.10;;;20.50;99.90;;;;;;5048368;28;20311;-72
2023/08/26 06:25:55;;;;;;;5.77;5.30;;;20.70;99.90;;;;;;5044492;28;20286;-72
2023/08/26 06:28:22;;;;;;;6.25;5.65;;;20.80;99.90;;;;;;5044595;28;20189;-71
2023/08/26 06:30:48;;;;;;;5.10;4.70;;;20.80;99.90;;;;;;5042586;28;20209;-71
2023/08/26 06:33:14;;;;;;;5.80;5.10;;;21.00;99.90;;;;;;5043999;28;20201;-71
2023/08/26 06:35:39;;;;;;;7.90;5.70;;;21.10;99.90;;;;;;5043044;28;20181;-71
2023/08/26 06:38:07;;;;;;;5.13;4.73;;;21.20;99.90;;;;;;5042252;28;20460;-71
2023/08/26 06:40:33;;;;;;;7.55;4.80;;;21.30;99.90;;;;;;5043801;28;20184;-71
2023/08/26 06:42:59;;;;;;;5.83;5.23;;;21.40;99.90;;;;;;5045347;28;20182;-71
2023/08/26 06:45:24;;;;;;;5.30;4.40;;;21.50;99.90;;;;;;5042113;28;20511;-71
2023/08/26 06:47:50;;;;;;;7.40;4.93;;;21.80;99.90;;;;;;5043311;28;20201;-71
2023/08/26 06:50:16;;;;;;;9.87;5.27;;;22.00;99.90;;;;;;5041119;28;20193;-71
2023/08/26 06:52:41;;;;;;;4.93;4.53;;;22.30;99.90;;;;;;5043309;28;20754;-71
2023/08/26 06:55:09;;;;;;;5.03;4.10;;;22.40;99.90;;;;;;5043673;28;20280;-71
2023/08/26 06:57:35;;;;;;;5.33;4.83;;;22.50;99.90;;;;;;5041450;28;20205;-71
2023/08/26 07:00:03;;;;;;;5.33;4.50;;;22.60;99.90;;;;;;5046937;28;20539;-72
2023/08/26 07:02:29;;;;;;;6.13;4.37;;;22.40;99.90;;;;;;5045238;28;20457;-72
2023/08/26 07:04:54;;;;;;;5.60;4.63;;;22.30;99.90;;;;;;5046129;28;20435;-71
2023/08/26 07:07:20;;;;;;;4.77;4.27;;;22.20;99.90;;;;;;5043267;28;20209;-71
2023/08/26 07:09:45;;;;;;;4.33;3.90;;;22.20;99.90;;;;;;5045136;28;20182;-71
2023/08/26 07:12:12;;;;;;;4.83;4.30;;;22.10;99.90;;;;;;5044667;28;20724;-70
2023/08/26 07:14:38;;;;;;;5.10;4.60;;;22.20;99.90;;;;;;5045804;28;20173;-73
2023/08/26 07:17:03;;;;;;;5.03;4.57;;;22.30;99.90;;;;;;5047072;28;21066;-70
2023/08/26 07:19:29;;;;;;;7.67;5.13;;;22.30;99.90;;;;;;5044286;28;20192;-71
2023/08/26 07:21:58;;;;;;;5.07;4.17;;;22.40;99.90;;;;;;5039949;28;20189;-64
2023/08/26 07:24:23;;;;;;;5.50;5.00;;;22.40;99.90;;;;;;5039752;28;20194;-64
2023/08/26 07:26:49;;;;;;;5.57;5.00;;;22.40;99.90;;;;;;5040166;28;20467;-64
2023/08/26 07:29:15;;;;;;;6.87;6.27;;;22.50;99.90;;;;;;5046274;28;20188;-63
2023/08/26 07:31:41;;;;;;;7.03;5.50;;;22.70;99.90;;;;;;5039039;28;20555;-68
2023/08/26 07:34:07;;;;;;;6.50;4.60;;;22.90;99.90;;;;;;5045259;28;20186;-67
2023/08/26 07:36:33;;;;;;;4.40;4.00;;;23.60;99.90;;;;;;5047488;28;20818;-68
2023/08/26 07:38:59;;;;;;;5.00;4.03;;;24.70;99.90;;;;;;5044850;28;20491;-66
2023/08/26 07:41:25;;;;;;;4.70;4.10;;;25.00;99.90;;;;;;5040109;28;20450;-68
2023/08/26 07:43:51;;;;;;;5.00;4.07;;;25.00;99.90;;;;;;5042334;28;20816;-65
2023/08/26 07:46:18;;;;;;;4.90;4.03;;;25.50;99.90;;;;;;5041770;28;20229;-66
2023/08/26 07:48:45;;;;;;;6.30;4.20;;;26.20;99.90;;;;;;5043425;28;20179;-66
2023/08/26 07:51:10;;;;;;;5.03;3.63;;;27.30;99.70;;;;;;5042935;28;20722;-66
2023/08/26 07:53:36;;;;;;;5.13;3.70;;;27.80;98.60;;;;;;5046420;28;20442;-65
2023/08/26 07:56:02;;;;;;;3.47;3.17;;;27.40;97.90;;;;;;5042651;28;20654;-65
2023/08/26 07:58:27;;;;;;;3.77;3.47;;;26.60;97.10;;;;;;5046476;28;20711;-66
2023/08/26 08:00:53;;;;;;;3.87;3.57;;;26.30;98.00;;;;;;5043111;28;20198;-66
2023/08/26 08:03:19;;;;;;;6.23;4.30;;;25.90;99.90;;;;;;5041921;28;20193;-66
2023/08/26 08:05:45;;;;;;;4.63;4.23;;;25.10;99.90;;;;;;5042459;28;20191;-66
2023/08/26 08:08:11;;;;;;;6.43;4.20;;;25.10;99.90;;;;;;5043481;28;20213;-66
2023/08/26 08:10:36;;;;;;;4.67;4.27;;;24.60;99.90;;;;;;5043172;28;20498;-66
2023/08/26 08:13:02;;;;;;;5.70;4.07;;;24.50;99.90;;;;;;5045281;28;20186;-65
2023/08/26 08:15:27;;;;;;;5.00;3.43;;;24.20;99.90;;;;;;5045263;28;20590;-65
2023/08/26 08:17:53;;;;;;;5.43;3.80;;;23.90;99.90;;;;;;5044254;28;20690;-65
2023/08/26 08:20:19;;;;;;;7.40;4.43;;;24.00;99.90;;;;;;5043471;28;20230;-65
2023/08/26 08:22:45;;;;;;;5.60;4.30;;;23.80;99.90;;;;;;5045477;28;20451;-65
2023/08/26 08:25:11;;;;;;;5.17;4.60;;;23.60;99.90;;;;;;5043246;28;20182;-65
2023/08/26 08:27:38;;;;;;;6.53;4.47;;;23.50;99.90;;;;;;5040681;28;20335;-65
2023/08/26 08:30:05;;;;;;;4.33;3.90;;;23.50;99.90;;;;;;5044703;28;20447;-65
2023/08/26 08:32:31;;;;;;;6.10;4.00;;;23.60;99.90;;;;;;5044724;28;20471;-66
2023/08/26 08:34:57;;;;;;;4.40;3.80;;;24.00;99.90;;;;;;5045605;28;20814;-66
2023/08/26 08:37:22;;;;;;;5.27;4.30;;;24.20;99.90;;;;;;5039841;28;20464;-66
2023/08/26 08:39:48;;;;;;;4.97;4.23;;;24.00;99.90;;;;;;5044018;28;20257;-64
2023/08/26 08:42:17;;;;;;;5.10;4.60;;;24.20;99.90;;;;;;5038724;28;20197;-64
2023/08/26 08:44:46;;;;;;;7.50;4.50;;;24.10;99.90;;;;;;5044458;28;20174;-65
2023/08/26 08:47:13;;;;;;;7.00;4.80;;;24.20;99.90;;;;;;5043112;28;20498;-64
2023/08/26 08:49:41;;;;;;;4.63;3.97;;;24.10;99.90;;;;;;5040706;28;21054;-66
2023/08/26 08:52:07;;;;;;;5.00;4.60;;;23.70;99.90;;;;;;5043634;28;20504;-65
2023/08/26 08:54:34;;;;;;;5.10;4.60;;;23.80;99.90;;;;;;5044148;28;20464;-64
2023/08/26 08:57:03;;;;;;;7.63;4.43;;;23.60;99.90;;;;;;5042234;28;20580;-65
2023/08/26 08:59:32;;;;;;;5.77;4.50;;;23.50;99.90;;;;;;5039176;28;21085;-65
2023/08/26 09:01:59;;;;;;;6.03;4.80;;;23.50;99.90;;;;;;5043944;28;20446;-65
2023/08/26 09:04:28;;;;;;;5.50;3.90;;;23.30;99.90;;;;;;5042778;28;20573;-65
2023/08/26 09:06:54;;;;;;;5.00;4.37;;;23.40;99.90;;;;;;5046930;28;21046;-65
2023/08/26 09:09:20;;;;;;;5.37;4.40;;;23.50;99.90;;;;;;5044057;28;20536;-64
2023/08/26 09:11:47;;;;;;;4.63;4.23;;;23.50;99.90;;;;;;5046819;28;20464;-64
2023/08/26 09:14:13;;;;;;;4.83;3.97;;;23.70;99.90;;;;;;5048020;28;20550;-64
2023/08/26 09:16:41;;;;;;;4.77;4.10;;;23.50;99.90;;;;;;5047581;28;20585;-64
2023/08/26 09:19:13;;;;;;;5.27;3.70;;;23.40;99.90;;;;;;5043201;28;20471;-64
2023/08/26 09:21:48;;;;;;;5.10;4.60;;;23.30;99.90;;;;;;5048051;28;20790;-64
2023/08/26 09:24:15;;;;;;;5.27;4.30;;;23.30;99.90;;;;;;5046041;28;20470;-64
2023/08/26 09:26:58;;;;;;;4.87;4.47;;;23.40;99.90;;;;;;5045975;28;20964;-64
2023/08/26 09:29:24;;;;;;;4.50;4.10;;;23.50;99.90;;;;;;5047118;28;20447;-67
2023/08/26 09:31:52;;;;;;;5.07;4.67;;;23.60;99.90;;;;;;5046298;28;21015;-65
2023/08/26 09:34:26;;;;;;;4.90;4.47;;;23.70;99.90;;;;;;5044776;28;20447;-66
2023/08/26 09:36:55;;;;;;;9.77;4.83;;;23.70;99.90;;;;;;5050858;28;21310;-65
2023/08/26 09:39:21;;;;;;;5.20;4.70;;;24.20;99.90;;;;;;5047504;28;20490;-64
2023/08/26 09:41:48;;;;;;;7.67;4.73;;;23.80;99.90;;;;;;5046994;28;20444;-64
2023/08/26 09:44:15;;;;;;;6.13;4.30;;;24.00;99.90;;;;;;5047993;28;20959;-64
2023/08/26 09:46:42;;;;;;;5.03;4.37;;;23.90;99.90;;;;;;5046541;28;20467;-65
2023/08/26 09:49:18;;;;;;;4.80;4.37;;;23.90;99.90;;;;;;5043939;28;20439;-65
2023/08/26 09:51:52;;;;;;;9.60;5.43;;;23.90;99.90;;;;;;5041932;28;20474;-65
2023/08/26 09:54:19;;;;;;;6.30;4.63;;;23.80;99.90;;;;;;5043368;28;20593;-66
2023/08/26 09:56:45;;;;;;;4.90;4.43;;;23.70;99.90;;;;;;5046252;28;21005;-64
2023/08/26 09:59:12;;;;;;;6.00;5.20;;;23.70;99.90;;;;;;5037135;28;20973;-64
2023/08/26 10:01:39;;;;;;;5.90;4.93;;;23.80;99.90;;;;;;5046776;28;21000;-67
2023/08/26 10:04:11;;;;;;;6.13;4.20;;;23.80;99.90;;;;;;5047510;28;20799;-67
2023/08/26 10:06:52;;;;;;;10.80;5.13;;;23.90;99.90;;;;;;5044548;28;20476;-67
2023/08/26 10:09:23;;;;;;;6.43;4.50;;;23.90;99.90;;;;;;5044574;28;20439;-65
2023/08/26 10:11:54;;;;;;;5.40;4.87;;;23.80;99.90;;;;;;5044888;28;20510;-65
2023/08/26 10:14:23;;;;;;;5.50;4.97;;;23.70;99.90;;;;;;5046078;28;20466;-64
2023/08/26 10:16:52;;;;;;;5.67;5.17;;;23.40;99.90;;;;;;5047424;28;20503;-65
2023/08/26 10:19:20;;;;;;;5.30;4.80;;;23.20;99.90;;;;;;5046708;28;20447;-65
2023/08/26 10:21:46;;;;;;;7.40;5.77;;;23.10;99.90;;;;;;5046797;28;21285;-66
2023/08/26 10:24:13;;;;;;;8.00;7.17;;;23.00;99.90;;;;;;5043149;28;20555;-65
2023/08/26 10:26:38;;;;;;;6.03;4.87;;;22.90;99.90;;;;;;5045254;28;20938;-65
2023/08/26 10:29:05;;;;;;;5.83;5.23;;;22.70;99.90;;;;;;5048571;28;20527;-65
2023/08/26 10:31:36;;;;;;;5.17;4.73;;;22.60;99.90;;;;;;5049093;28;20479;-66
2023/08/26 10:34:13;;;;;;;6.13;5.20;;;22.60;99.90;;;;;;5046815;28;20448;-64
2023/08/26 10:36:41;;;;;;;5.43;4.50;;;22.60;99.90;;;;;;5045791;28;20455;-65
2023/08/26 10:39:18;;;;;;;6.10;5.57;;;22.80;99.90;;;;;;5047016;28;20440;-64
2023/08/26 10:42:11;;;;;;;6.70;5.07;;;22.70;99.90;;;;;;5043468;28;20452;-65
2023/08/26 10:44:39;;;;;;;5.40;4.80;;;22.70;99.90;;;;;;5046093;28;20436;-66
2023/08/26 10:47:05;;;;;;;6.20;5.27;;;22.40;99.90;;;;;;5047392;28;20466;-65
2023/08/26 10:49:31;;;;;;;6.60;4.90;;;22.40;99.90;;;;;;5047563;28;20491;-66
2023/08/26 10:52:29;;;;;;;5.67;5.27;;;22.30;99.90;;;;;;5047248;28;20491;-66
2023/08/26 10:54:55;;;;;;;6.27;5.70;;;22.30;99.90;;;;;;5047557;28;20442;-66
2023/08/26 10:57:20;;;;;;;5.80;5.03;;;22.00;99.90;;;;;;5042551;28;20456;-66
2023/08/26 10:59:47;;;;;;;5.90;5.27;;;22.10;99.90;;;;;;5047176;28;20200;-66
2023/08/26 11:02:13;;;;;;;5.93;5.40;;;22.00;99.90;;;;;;5046726;28;20268;-65
2023/08/26 11:04:45;;;;;;;5.37;4.97;;;22.00;99.90;;;;;;5046857;28;21170;-65
2023/08/26 11:07:18;;;;;;;5.00;4.60;;;21.80;99.90;;;;;;5045982;28;20262;-66
2023/08/26 11:09:45;;;;;;;5.30;4.80;;;21.90;99.90;;;;;;5044519;28;20451;-64
2023/08/26 11:12:27;;;;;;;11.40;5.33;;;21.90;99.90;;;;;;5042078;28;20997;-66
2023/08/26 11:15:04;;;;;;;9.50;6.03;;;22.20;99.90;;;;;;5046974;28;20462;-66
2023/08/26 11:17:29;;;;;;;5.50;4.60;;;22.60;99.90;;;;;;5044771;28;20546;-66
2023/08/26 11:19:55;;;;;;;6.40;4.93;;;22.70;99.90;;;;;;5045880;28;20585;-66
2023/08/26 11:22:28;;;;;;;6.20;5.17;;;23.00;99.90;;;;;;5046312;28;20566;-66
2023/08/26 11:24:55;;;;;;;6.20;5.07;;;23.20;99.90;;;;;;5043487;28;20440;-66
2023/08/26 11:27:20;;;;;;;5.10;4.60;;;23.20;99.90;;;;;;5044234;28;20621;-66
2023/08/26 11:29:46;;;;;;;7.27;5.03;;;23.40;99.90;;;;;;5044391;28;21026;-66
2023/08/26 11:32:12;;;;;;;7.37;4.80;;;23.30;99.90;;;;;;5044139;28;20361;-64
2023/08/26 11:34:37;;;;;;;5.90;5.10;;;23.20;99.90;;;;;;5046267;28;20181;-64
2023/08/26 11:37:03;;;;;;;6.00;4.70;;;23.00;99.90;;;;;;5043640;28;20859;-64
2023/08/26 11:39:36;;;;;;;5.67;4.87;;;23.00;99.90;;;;;;5042423;28;20537;-64
2023/08/26 11:42:15;;;;;;;5.23;4.73;;;23.00;99.90;;;;;;5044756;28;20531;-64
2023/08/26 11:44:45;;;;;;;5.57;4.90;;;23.00;99.90;;;;;;5044770;28;20444;-65
2023/08/26 11:47:12;;;;;;;6.67;6.07;;;23.00;99.90;;;;;;5045317;28;20471;-64
2023/08/26 11:49:39;;;;;;;6.73;6.00;;;22.90;99.90;;;;;;5043886;28;20995;-65
2023/08/26 11:52:05;;;;;;;6.10;5.60;;;22.80;99.90;;;;;;5042788;28;20460;-65
2023/08/26 11:54:31;;;;;;;7.33;5.17;;;22.70;99.90;;;;;;5045661;28;20928;-65
2023/08/26 11:56:57;;;;;;;5.87;5.27;;;22.70;99.90;;;;;;5042601;28;20542;-65
2023/08/26 11:59:23;;;;;;;6.17;5.27;;;22.80;99.90;;;;;;5040692;28;20235;-65
2023/08/26 12:01:49;;;;;;;8.33;5.77;;;22.90;99.90;;;;;;5043554;28;20462;-65
2023/08/26 12:04:19;;;;;;;8.40;5.47;;;22.70;99.90;;;;;;5041554;28;20630;-65
2023/08/26 12:06:45;;;;;;;6.57;5.97;;;21.90;99.90;;;;;;5039601;28;20193;-64
2023/08/26 12:09:12;;;;;;;7.60;5.87;;;22.50;99.90;;;;;;5046422;28;20447;-65
2023/08/26 12:11:42;;;;;;;6.73;6.00;;;22.30;99.90;;;;;;5045271;28;20479;-64
2023/08/26 12:14:18;;;;;;;8.23;6.97;;;22.30;99.90;;;;;;5046165;28;20428;-66
2023/08/26 12:16:44;;;;;;;9.80;6.20;;;22.20;99.90;;;;;;5043697;28;20455;-65
2023/08/26 12:19:17;;;;;;;7.67;6.97;;;22.10;99.90;;;;;;5042078;28;20443;-65
2023/08/26 12:21:47;;;;;;;6.90;6.40;;;22.20;99.90;;;;;;5044219;28;20505;-65
2023/08/26 12:24:13;;;;;;;7.57;6.87;;;21.90;99.90;;;;;;5045626;28;20449;-65
2023/08/26 12:26:39;;;;;;;7.00;6.40;;;21.80;99.90;;;;;;5044382;28;20470;-65
2023/08/26 12:29:05;;;;;;;7.33;6.77;;;21.80;99.90;;;;;;5042915;28;20191;-66
2023/08/26 12:31:34;;;;;;;8.07;7.10;;;21.80;99.90;;;;;;5041444;28;20468;-65
2023/08/26 12:34:01;;;;;;;11.03;8.90;;;21.70;99.90;;;;;;5044048;28;20178;-65
2023/08/26 12:36:26;;;;;;;12.70;11.50;;;21.60;99.90;;;;;;5041263;28;20832;-64
2023/08/26 12:38:52;;;;;;;9.50;7.67;;;21.60;99.90;;;;;;5045859;28;20435;-65
2023/08/26 12:41:18;;;;;;;10.53;8.10;;;21.50;99.90;;;;;;5044712;28;20673;-65
2023/08/26 12:43:46;;;;;;;7.97;7.23;;;21.40;99.90;;;;;;5044973;28;20185;-64